»·PEaware :: AAL2478 KLAS-KLAX

AAL2478 :: KLAS-KLAX

FLIGHT INFORMATION

Flight Status: Arrived
Operator:
American Airlines
More flights by this operator :: More flights under this callsign
Pilot: Connor G. (28350)
Aircraft: BOEING 737-800
(B738)
More flights by this aircraft type
Origin: KLAS McCarran Intl
United States
Destination: KLAX Los Angeles Intl
United States
More flights between these airports :: More routes between these airports
Route: +BOACH8 RIKII SHTNR ANJLL4
File this flight plan on PilotEdge
Remarks: RMK / SIMBRIEF
Altitude:
(Current/Filed)
34,000ft
Speed:
(Current/Filed)
441kts
Departed: 20-Mar-20 07:05 PM
Arrived: 20-Mar-20 07:54 PM
Distance/Time
Traveled:
205nm/0:49
Distance/Time
To Go:
Arrived

Flight Plot

Page will automatically refresh every two minutes.

Flight plan parsing failed; only flown route is shown


Map Options




Map Legend


Flown Route
Filed Route
Departure Airport
Arrival Airport
Navaid (VOR, NDB)
Fix

Horizontal Profiles

Position Reports

Time Latitude Longitude Heading Altitude Ground
Speed
20-Mar-20 18:21 36.081216 -115.139734 129 2074ft 0kts
20-Mar-20 18:26 36.081216 -115.139734 129 2074ft 0kts
20-Mar-20 18:27 36.081216 -115.139734 129 2074ft 0kts
20-Mar-20 18:28 36.081216 -115.139734 129 2074ft 0kts
20-Mar-20 18:29 36.081216 -115.139734 129 2074ft 0kts
20-Mar-20 18:30 36.081216 -115.139734 129 2074ft 0kts
20-Mar-20 18:31 36.081216 -115.139734 129 2074ft 0kts
20-Mar-20 18:32 36.081216 -115.139734 129 2074ft 0kts
20-Mar-20 18:33 36.081216 -115.139734 129 2074ft 0kts
20-Mar-20 18:34 36.081216 -115.139734 129 2074ft 0kts
20-Mar-20 18:35 36.081216 -115.139734 129 2074ft 0kts
20-Mar-20 18:36 36.081216 -115.139734 129 2074ft 0kts
20-Mar-20 18:37 36.081216 -115.139734 129 2074ft 0kts
20-Mar-20 18:38 36.081216 -115.139734 129 2074ft 0kts
20-Mar-20 18:39 36.081216 -115.139734 129 2074ft 0kts
20-Mar-20 18:40 36.081216 -115.139734 129 2074ft 0kts
20-Mar-20 18:41 36.081216 -115.139734 129 2074ft 0kts
20-Mar-20 18:42 36.081216 -115.139734 129 2074ft 0kts
20-Mar-20 18:43 36.081216 -115.139734 129 2074ft 0kts
20-Mar-20 18:44 36.081216 -115.139734 129 2074ft 0kts
20-Mar-20 18:45 36.081216 -115.139734 129 2074ft 0kts
20-Mar-20 18:46 36.081216 -115.139734 129 2074ft 0kts
20-Mar-20 18:47 36.081216 -115.139734 129 2074ft 0kts
20-Mar-20 18:48 36.081548 -115.140234 128 2075ft 2kts
20-Mar-20 18:49 36.081873 -115.140857 112 2077ft 2kts
20-Mar-20 18:50 36.082135 -115.141515 146 2079ft 2kts
20-Mar-20 18:51 36.082372 -115.141591 180 2078ft 0kts
20-Mar-20 18:52 36.082372 -115.141591 180 2078ft 0kts
20-Mar-20 18:53 36.081771 -115.141591 179 2079ft 3kts
20-Mar-20 18:54 36.080796 -115.141585 179 2081ft 5kts
20-Mar-20 18:55 36.079059 -115.141584 180 2084ft 6kts
20-Mar-20 18:56 36.078956 -115.141585 180 2084ft 0kts
20-Mar-20 18:57 36.078956 -115.141585 180 2084ft 0kts
20-Mar-20 18:58 36.078956 -115.141585 180 2084ft 0kts
20-Mar-20 18:59 36.078281 -115.139970 91 2081ft 17kts
20-Mar-20 19:00 36.078270 -115.132801 90 2059ft 24kts
20-Mar-20 19:01 36.078260 -115.123685 89 2041ft 28kts
20-Mar-20 19:02 36.077408 -115.121411 143 2039ft 0kts
20-Mar-20 19:03 36.076960 -115.121245 176 2040ft 9kts
20-Mar-20 19:04 36.076428 -115.128761 269 2052ft 97kts
20-Mar-20 19:05 36.076327 -115.184443 268 3744ft 187kts
20-Mar-20 19:06 36.063982 -115.248248 230 5732ft 199kts
20-Mar-20 19:07 36.006637 -115.284922 198 6932ft 274kts
20-Mar-20 19:08 35.933186 -115.306290 185 9340ft 276kts
20-Mar-20 19:09 35.851775 -115.314008 177 11331ft 321kts
20-Mar-20 19:10 35.761218 -115.304186 175 14221ft 331kts
20-Mar-20 19:11 35.669577 -115.292167 179 17120ft 336kts
20-Mar-20 19:12 35.575118 -115.291711 183 19203ft 347kts
20-Mar-20 19:13 35.485166 -115.323630 204 19238ft 338kts
20-Mar-20 19:14 35.404457 -115.383664 213 20899ft 341kts
20-Mar-20 19:15 35.324215 -115.446227 210 23078ft 346kts
20-Mar-20 19:16 35.238554 -115.501519 209 25061ft 352kts
20-Mar-20 19:17 35.153164 -115.561171 217 26808ft 356kts
20-Mar-20 19:18 35.078541 -115.641212 225 28396ft 360kts
20-Mar-20 19:19 35.022188 -115.710329 226 29614ft 363kts
20-Mar-20 19:20 34.952625 -115.797977 227 31425ft 355kts
20-Mar-20 19:21 34.886552 -115.881855 227 33658ft 333kts
20-Mar-20 19:22 34.823648 -115.961770 228 34252ft 325kts
20-Mar-20 19:23 34.761292 -116.040801 228 34252ft 322kts
20-Mar-20 19:24 34.699404 -116.119465 228 34251ft 323kts
20-Mar-20 19:25 34.637467 -116.198277 228 34241ft 325kts
20-Mar-20 19:26 34.575140 -116.277430 228 34239ft 324kts
20-Mar-20 19:27 34.513094 -116.356045 228 34234ft 314kts
20-Mar-20 19:28 34.454368 -116.430431 229 34235ft 312kts
20-Mar-20 19:29 34.403554 -116.513634 238 33660ft 300kts
20-Mar-20 19:30 34.366029 -116.600951 241 31810ft 287kts
20-Mar-20 19:31 34.330981 -116.685923 241 30239ft 280kts
20-Mar-20 19:32 34.295444 -116.774020 242 28605ft 291kts
20-Mar-20 19:33 34.260553 -116.860817 242 26755ft 285kts
20-Mar-20 19:34 34.226088 -116.946271 242 24947ft 282kts
20-Mar-20 19:35 34.196480 -117.037419 247 22977ft 307kts
20-Mar-20 19:36 34.169988 -117.135348 247 21051ft 308kts
20-Mar-20 19:37 34.143070 -117.233534 247 19127ft 310kts
20-Mar-20 19:38 34.115742 -117.332694 248 17175ft 313kts
20-Mar-20 19:39 34.089491 -117.433061 251 15296ft 314kts
20-Mar-20 19:40 34.064118 -117.534207 251 13166ft 320kts
20-Mar-20 19:41 34.039128 -117.631992 252 11394ft 292kts
20-Mar-20 19:42 34.019441 -117.722425 261 10091ft 262kts
20-Mar-20 19:43 34.011236 -117.809735 262 8874ft 264kts
20-Mar-20 19:44 34.002952 -117.894549 262 7543ft 249kts
20-Mar-20 19:45 33.994606 -117.979630 262 6201ft 249kts
20-Mar-20 19:46 33.986246 -118.063617 262 4886ft 252kts
20-Mar-20 19:47 33.978883 -118.140074 263 4000ft 221kts
20-Mar-20 19:48 33.972116 -118.207579 261 3341ft 209kts
20-Mar-20 19:49 33.965603 -118.269636 261 2280ft 166kts
20-Mar-20 19:50 33.960569 -118.318435 261 1825ft 147kts
20-Mar-20 19:51 33.956215 -118.364511 259 832ft 138kts
20-Mar-20 19:52 33.951877 -118.404236 261 146ft 137kts
20-Mar-20 19:53 33.949600 -118.424660 249 118ft 31kts
20-Mar-20 19:54 33.948530 -118.426729 227 115ft 0kts
20-Mar-20 19:55 33.948448 -118.426829 225 115ft 7kts
20-Mar-20 19:56 33.946357 -118.426979 89 111ft 7kts
20-Mar-20 19:58 33.946704 -118.423592 83 116ft 16kts
20-Mar-20 19:59 33.947174 -118.418869 83 122ft 22kts
20-Mar-20 20:00 33.947750 -118.414042 71 124ft 11kts
20-Mar-20 20:01 33.948282 -118.409277 103 125ft 14kts
20-Mar-20 20:02 33.946541 -118.409748 260 125ft 0kts
20-Mar-20 20:03 33.946541 -118.409748 260 125ft 0kts
20-Mar-20 20:04 33.946541 -118.409748 260 125ft 0kts
20-Mar-20 20:05 33.946541 -118.409748 260 125ft 0kts
20-Mar-20 20:06 33.946541 -118.409748 260 125ft 0kts
20-Mar-20 20:07 33.946541 -118.409748 260 125ft 0kts
20-Mar-20 20:08 33.946541 -118.409748 260 125ft 0kts

Navigation Log

Ident Type
Flight plan parsing failed, navigation log unavailable